Time;durP1;ratioP1;P1;durP2;ratioP2;P2;SDS_P1;SDS_P2;PMS_P1;PMS_P2;Temp;Humidity;BMP_temperature;BMP_pressure;BME280_temperature;BME280_humidity;BME280_pressure;Samples;Min_cycle;Max_cycle;Signal;HPM_P1;HPM_P2
2023/03/16 00:02:23;;;;;;;12.05;5.38;;;0.70;88.10;;;;;;5049409;28;20853;-47
2023/03/16 00:04:51;;;;;;;12.68;4.00;;;0.80;87.60;;;;;;5032848;28;20029;-45
2023/03/16 00:07:19;;;;;;;8.68;3.13;;;0.90;87.30;;;;;;5032737;28;20462;-45
2023/03/16 00:09:45;;;;;;;8.75;3.42;;;0.90;86.70;;;;;;5032395;28;20501;-47
2023/03/16 00:12:16;;;;;;;10.63;2.95;;;1.00;86.30;;;;;;5031604;28;20112;-45
2023/03/16 00:14:47;;;;;;;8.93;3.70;;;1.00;85.70;;;;;;5032114;28;20042;-45
2023/03/16 00:17:18;;;;;;;7.35;3.03;;;1.10;85.20;;;;;;5031591;28;20018;-48
2023/03/16 00:19:53;;;;;;;7.85;3.88;;;1.10;84.60;;;;;;5031071;28;20037;-45
2023/03/16 00:22:27;;;;;;;12.38;5.13;;;1.20;84.50;;;;;;5031538;28;20136;-46
2023/03/16 00:24:57;;;;;;;6.13;2.78;;;1.20;84.20;;;;;;5032543;28;20029;-50
2023/03/16 00:27:26;;;;;;;7.47;3.03;;;1.20;84.20;;;;;;5034705;28;20021;-48
2023/03/16 00:29:55;;;;;;;8.53;3.07;;;1.20;84.10;;;;;;5049410;28;20108;-47
2023/03/16 00:32:33;;;;;;;7.25;3.53;;;1.20;84.30;;;;;;5056160;28;20036;-45
2023/03/16 00:35:01;;;;;;;7.82;2.70;;;1.20;84.20;;;;;;5040891;28;20116;-46
2023/03/16 00:37:27;;;;;;;7.68;3.03;;;1.10;84.10;;;;;;5034904;28;20435;-46
2023/03/16 00:40:08;;;;;;;10.60;3.30;;;1.10;84.10;;;;;;5034922;28;20061;-47
2023/03/16 00:42:35;;;;;;;8.75;3.38;;;1.00;83.90;;;;;;5055269;28;20028;-45
2023/03/16 00:45:04;;;;;;;7.80;3.10;;;1.00;83.40;;;;;;5055544;28;20021;-48
2023/03/16 00:47:32;;;;;;;7.55;2.40;;;1.00;83.40;;;;;;5046861;28;20033;-47
2023/03/16 00:50:02;;;;;;;7.55;2.85;;;1.00;83.10;;;;;;5034783;28;20030;-45
2023/03/16 00:52:29;;;;;;;7.07;2.90;;;1.00;83.10;;;;;;5034499;28;20462;-50
2023/03/16 00:54:55;;;;;;;8.15;3.08;;;1.00;83.10;;;;;;5035526;28;20034;-46
2023/03/16 00:57:24;;;;;;;9.50;2.70;;;1.00;82.70;;;;;;5035305;28;20036;-45
2023/03/16 00:59:51;;;;;;;5.18;3.50;;;1.00;82.40;;;;;;5035586;28;20116;-45
2023/03/16 01:02:26;;;;;;;8.48;2.47;;;1.00;82.00;;;;;;5034643;28;20109;-47
2023/03/16 01:04:55;;;;;;;7.82;3.28;;;1.10;81.90;;;;;;5034220;28;20025;-46
2023/03/16 01:07:24;;;;;;;6.65;3.03;;;1.10;81.80;;;;;;5034929;28;20033;-44
2023/03/16 01:09:51;;;;;;;6.88;2.40;;;1.10;81.70;;;;;;5051979;28;20073;-50
2023/03/16 01:12:19;;;;;;;5.13;2.15;;;1.20;81.00;;;;;;5054731;28;20029;-47
2023/03/16 01:14:47;;;;;;;5.68;2.45;;;1.30;81.10;;;;;;5039185;28;20080;-48
2023/03/16 01:17:16;;;;;;;11.23;3.13;;;1.30;80.80;;;;;;5033962;28;20036;-47
2023/03/16 01:19:44;;;;;;;6.23;2.33;;;1.30;79.90;;;;;;5034060;28;20623;-48
2023/03/16 01:22:14;;;;;;;7.23;2.53;;;1.40;79.40;;;;;;5034350;28;20116;-46
2023/03/16 01:24:46;;;;;;;5.13;2.22;;;1.40;79.50;;;;;;5017766;28;20087;-45
2023/03/16 01:27:17;;;;;;;6.50;2.38;;;1.50;79.20;;;;;;5034856;28;20034;-47
2023/03/16 01:29:46;;;;;;;6.05;2.85;;;1.60;78.70;;;;;;5017117;28;20084;-48
2023/03/16 01:32:15;;;;;;;5.55;2.35;;;1.60;78.40;;;;;;5034445;28;20052;-49
2023/03/16 01:34:43;;;;;;;5.47;1.85;;;1.70;77.90;;;;;;5034760;28;20087;-45
2023/03/16 01:37:11;;;;;;;7.45;2.38;;;1.70;78.00;;;;;;5033424;28;20060;-47
2023/03/16 01:39:38;;;;;;;8.23;2.40;;;1.70;78.00;;;;;;5034647;28;20025;-49
2023/03/16 01:42:05;;;;;;;7.57;2.60;;;1.70;77.90;;;;;;5033796;28;20021;-48
2023/03/16 01:45:04;;;;;;;6.90;2.72;;;1.80;77.50;;;;;;5034692;28;20044;-49
2023/03/16 01:47:37;;;;;;;5.13;2.85;;;1.80;77.60;;;;;;5034288;28;20079;-48
2023/03/16 01:50:07;;;;;;;6.80;2.33;;;1.80;77.40;;;;;;5034431;28;20033;-47
2023/03/16 01:52:37;;;;;;;10.05;3.00;;;1.80;77.40;;;;;;5033597;28;20041;-44
2023/03/16 01:55:14;;;;;;;8.68;2.40;;;1.80;77.40;;;;;;5033543;28;20033;-51
2023/03/16 01:57:47;;;;;;;6.13;2.10;;;1.80;77.60;;;;;;5033372;28;20083;-46
2023/03/16 02:00:30;;;;;;;8.30;3.50;;;1.80;77.60;;;;;;5033910;28;20033;-45
2023/03/16 02:03:06;;;;;;;6.38;2.65;;;1.80;77.50;;;;;;5034518;28;20324;-47
2023/03/16 02:06:11;;;;;;;4.32;2.00;;;1.80;77.60;;;;;;5049792;28;20034;-46
2023/03/16 02:08:41;;;;;;;6.10;2.80;;;1.90;77.40;;;;;;5027486;28;20094;-46
2023/03/16 02:11:11;;;;;;;6.88;2.90;;;1.90;77.30;;;;;;5024964;28;20100;-46
2023/03/16 02:13:38;;;;;;;;;;;1.90;77.40;;;;;;5033641;28;20040;-47
2023/03/16 02:16:07;;;;;;;5.88;2.53;;;1.90;77.40;;;;;;5033310;28;20247;-49
2023/03/16 02:18:33;;;;;;;5.30;2.03;;;1.90;77.20;;;;;;5049027;28;20063;-45
2023/03/16 02:21:32;;;;;;;9.23;2.63;;;1.90;77.20;;;;;;5033970;28;20097;-45
2023/03/16 02:24:10;;;;;;;5.55;2.30;;;1.90;76.90;;;;;;5033641;28;20033;-45
2023/03/16 02:26:55;;;;;;;5.70;2.30;;;1.90;76.80;;;;;;5034165;28;20033;-45
2023/03/16 02:29:52;;;;;;;6.50;2.13;;;1.90;76.80;;;;;;5032654;28;20108;-47
2023/03/16 02:32:22;;;;;;;7.85;1.98;;;1.90;76.60;;;;;;5033760;28;20099;-44
2023/03/16 02:34:54;;;;;;;4.32;1.80;;;1.90;76.50;;;;;;5052015;28;20518;-44
2023/03/16 02:37:20;;;;;;;8.48;3.28;;;1.90;76.30;;;;;;5036137;28;20181;-45
2023/03/16 02:39:49;;;;;;;6.65;2.28;;;1.90;75.90;;;;;;5053387;28;20583;-46
2023/03/16 02:42:17;;;;;;;6.72;2.28;;;1.90;75.80;;;;;;5044168;28;20029;-48
2023/03/16 02:44:49;;;;;;;5.93;2.28;;;1.90;75.70;;;;;;5033469;28;20025;-44
2023/03/16 02:47:43;;;;;;;5.03;1.88;;;1.90;76.10;;;;;;5035734;28;20454;-45
2023/03/16 02:50:21;;;;;;;7.57;2.20;;;1.90;75.90;;;;;;5048330;28;20068;-47
2023/03/16 02:52:52;;;;;;;5.55;2.67;;;1.90;75.60;;;;;;5032959;28;20045;-46
2023/03/16 02:55:20;;;;;;;7.45;2.55;;;1.90;76.30;;;;;;5033296;28;20039;-45
2023/03/16 02:57:47;;;;;;;5.43;1.95;;;1.90;75.90;;;;;;5033302;28;20022;-46
2023/03/16 03:00:16;;;;;;;5.75;2.75;;;2.00;75.70;;;;;;5032968;28;20025;-48
2023/03/16 03:02:51;;;;;;;5.10;2.50;;;2.00;75.60;;;;;;5033306;28;20114;-46
2023/03/16 03:05:29;;;;;;;8.43;2.42;;;2.00;75.50;;;;;;5033264;28;20466;-45
2023/03/16 03:07:57;;;;;;;4.43;1.80;;;2.00;75.20;;;;;;5033156;28;20034;-45
2023/03/16 03:10:25;;;;;;;6.60;2.30;;;2.00;75.40;;;;;;5052253;28;20032;-48
2023/03/16 03:12:52;;;;;;;12.27;2.40;;;2.00;75.10;;;;;;5052996;28;20028;-45
2023/03/16 03:15:18;;;;;;;5.68;2.60;;;2.00;74.90;;;;;;5035472;28;20559;-45
2023/03/16 03:17:47;;;;;;;4.85;2.00;;;2.00;74.60;;;;;;5031969;28;20034;-45
2023/03/16 03:20:16;;;;;;;5.07;2.35;;;2.10;74.60;;;;;;5032068;28;20590;-45
2023/03/16 03:22:48;;;;;;;8.50;2.72;;;2.00;74.40;;;;;;5033085;28;20034;-45
2023/03/16 03:25:17;;;;;;;6.80;4.40;;;2.10;74.30;;;;;;5031447;28;20037;-46
2023/03/16 03:27:49;;;;;;;5.00;1.90;;;2.10;74.40;;;;;;5031583;28;20021;-46
2023/03/16 03:30:19;;;;;;;6.65;2.38;;;2.20;73.70;;;;;;5031792;28;20057;-45
2023/03/16 03:32:47;;;;;;;3.90;2.17;;;2.20;73.70;;;;;;5014208;28;20037;-45
2023/03/16 03:35:15;;;;;;;5.25;1.92;;;2.30;73.30;;;;;;5032273;28;20542;-45
2023/03/16 03:37:45;;;;;;;5.20;2.45;;;2.30;73.50;;;;;;5031745;28;20043;-46
2023/03/16 03:40:14;;;;;;;8.02;2.55;;;2.40;73.30;;;;;;5032653;28;20053;-46
2023/03/16 03:42:42;;;;;;;4.60;2.55;;;2.40;73.70;;;;;;5032222;28;20473;-48
2023/03/16 03:45:21;;;;;;;7.32;3.08;;;2.40;73.60;;;;;;5032374;28;20713;-45
2023/03/16 03:47:49;;;;;;;7.57;2.85;;;2.40;73.00;;;;;;5032374;28;20367;-46
2023/03/16 03:50:16;;;;;;;7.85;2.70;;;2.40;73.50;;;;;;5031723;28;20033;-45
2023/03/16 03:52:42;;;;;;;6.53;2.95;;;2.40;73.50;;;;;;5015157;28;20128;-46
2023/03/16 03:55:09;;;;;;;6.70;2.78;;;2.40;73.20;;;;;;5032905;28;20343;-45
2023/03/16 03:57:39;;;;;;;5.05;2.13;;;2.40;73.00;;;;;;5031647;28;20017;-49
2023/03/16 04:00:08;;;;;;;7.25;2.80;;;2.40;73.30;;;;;;5032750;28;20033;-47
2023/03/16 04:02:36;;;;;;;6.97;2.83;;;2.40;73.10;;;;;;5036276;28;20025;-49
2023/03/16 04:05:06;;;;;;;3.72;2.10;;;2.40;73.40;;;;;;5035486;28;20458;-45
2023/03/16 04:07:33;;;;;;;8.73;2.28;;;2.30;73.70;;;;;;5035655;28;20455;-44
2023/03/16 04:10:00;;;;;;;6.03;2.55;;;2.30;73.90;;;;;;5051768;28;20025;-45
2023/03/16 04:12:26;;;;;;;7.60;3.22;;;2.30;73.90;;;;;;5055089;28;20035;-46
2023/03/16 04:14:53;;;;;;;10.98;3.20;;;2.40;73.80;;;;;;5056050;28;20045;-45
2023/03/16 04:17:19;;;;;;;7.47;2.60;;;2.40;73.80;;;;;;5044922;28;20033;-46
2023/03/16 04:19:49;;;;;;;5.03;2.70;;;2.40;73.60;;;;;;5051701;28;20091;-45
2023/03/16 04:22:22;;;;;;;6.30;2.50;;;2.40;73.30;;;;;;5036154;28;20056;-44
2023/03/16 04:24:48;;;;;;;9.50;2.83;;;2.40;73.40;;;;;;5035725;28;20049;-44
2023/03/16 04:27:15;;;;;;;7.18;2.50;;;2.40;73.20;;;;;;5035101;28;20030;-46
2023/03/16 04:29:42;;;;;;;8.90;3.00;;;2.40;73.20;;;;;;5037274;28;20033;-44
2023/03/16 04:32:08;;;;;;;7.47;3.33;;;2.50;73.20;;;;;;5055033;28;20041;-49
2023/03/16 04:34:35;;;;;;;7.22;3.42;;;2.50;73.30;;;;;;5042401;28;20037;-49
2023/03/16 04:37:01;;;;;;;7.82;3.42;;;2.50;73.40;;;;;;5035954;28;20026;-51
2023/03/16 04:39:29;;;;;;;7.68;2.88;;;2.40;73.50;;;;;;5035780;28;20354;-45
2023/03/16 04:41:57;;;;;;;8.07;2.72;;;2.40;73.30;;;;;;5035883;28;20343;-46
2023/03/16 04:44:25;;;;;;;7.70;2.97;;;2.40;73.60;;;;;;5036110;28;20049;-43
2023/03/16 04:46:52;;;;;;;6.43;2.88;;;2.50;73.50;;;;;;5035608;28;20029;-44
2023/03/16 04:49:20;;;;;;;6.47;2.70;;;2.50;73.40;;;;;;5035576;28;20159;-48
2023/03/16 04:51:47;;;;;;;9.63;3.08;;;2.50;73.40;;;;;;5034814;28;20040;-46
2023/03/16 04:54:15;;;;;;;5.22;2.60;;;2.40;73.40;;;;;;5035682;28;20491;-49
2023/03/16 04:56:46;;;;;;;8.88;2.90;;;2.50;73.00;;;;;;5035568;28;20117;-46
2023/03/16 04:59:16;;;;;;;10.45;3.67;;;2.50;73.00;;;;;;5035188;28;20041;-48
2023/03/16 05:01:42;;;;;;;6.80;3.20;;;2.50;72.90;;;;;;5035502;28;20471;-44
2023/03/16 05:04:09;;;;;;;9.35;3.47;;;2.50;73.00;;;;;;5034470;28;20034;-46
2023/03/16 05:06:35;;;;;;;4.55;3.03;;;2.50;72.70;;;;;;5035127;28;20029;-45
2023/03/16 05:09:07;;;;;;;7.57;2.65;;;2.60;72.70;;;;;;5018011;28;20074;-46
2023/03/16 05:11:47;;;;;;;8.95;3.50;;;2.60;72.70;;;;;;5034374;28;20029;-48
2023/03/16 05:14:13;;;;;;;6.75;3.03;;;2.60;72.70;;;;;;5034332;28;20034;-43
2023/03/16 05:16:40;;;;;;;9.27;3.05;;;2.60;72.50;;;;;;5035129;28;20028;-49
2023/03/16 05:19:08;;;;;;;6.53;3.35;;;2.60;72.30;;;;;;5034994;28;20438;-47
2023/03/16 05:21:36;;;;;;;4.68;2.78;;;2.60;72.50;;;;;;5033556;28;20032;-46
2023/03/16 05:24:04;;;;;;;9.50;5.15;;;2.70;72.10;;;;;;5046128;28;20078;-47
2023/03/16 05:26:32;;;;;;;6.25;2.70;;;2.70;72.10;;;;;;5053513;28;20029;-45
2023/03/16 05:29:00;;;;;;;4.80;2.92;;;2.70;72.00;;;;;;5055062;28;20025;-46
2023/03/16 05:31:31;;;;;;;5.75;4.07;;;2.70;72.00;;;;;;5055024;28;20036;-45
2023/03/16 05:33:59;;;;;;;8.23;3.50;;;2.70;72.10;;;;;;5035077;28;20525;-43
2023/03/16 05:36:25;;;;;;;8.35;3.08;;;2.70;72.20;;;;;;5034613;28;20040;-43
2023/03/16 05:38:53;;;;;;;7.35;2.78;;;2.70;72.10;;;;;;5034619;28;20423;-45
2023/03/16 05:41:21;;;;;;;5.60;2.70;;;2.70;71.90;;;;;;5035744;28;20030;-45
2023/03/16 05:43:49;;;;;;;6.35;2.92;;;2.70;71.40;;;;;;5054508;28;20350;-45
2023/03/16 05:46:18;;;;;;;8.30;3.50;;;2.80;71.10;;;;;;5052324;28;20056;-44
2023/03/16 05:48:46;;;;;;;6.65;3.03;;;2.80;71.00;;;;;;5033475;28;20107;-45
2023/03/16 05:51:13;;;;;;;8.15;2.92;;;2.80;70.90;;;;;;5033618;28;20140;-44
2023/03/16 05:53:40;;;;;;;9.25;3.35;;;2.80;70.80;;;;;;5033354;28;20107;-44
2023/03/16 05:56:06;;;;;;;9.77;3.50;;;2.90;70.70;;;;;;5034472;28;20091;-44
2023/03/16 05:58:33;;;;;;;9.98;5.55;;;2.90;70.60;;;;;;5033977;28;20045;-45
2023/03/16 06:01:02;;;;;;;6.38;3.60;;;2.90;70.60;;;;;;5034274;28;20032;-43
2023/03/16 06:03:30;;;;;;;11.30;3.40;;;2.90;70.20;;;;;;5051834;28;20039;-44
2023/03/16 06:06:01;;;;;;;7.70;3.53;;;2.90;70.00;;;;;;5041141;28;20400;-44
2023/03/16 06:08:27;;;;;;;6.95;3.38;;;2.90;70.40;;;;;;5033819;28;20044;-46
2023/03/16 06:10:55;;;;;;;4.93;3.17;;;2.90;70.70;;;;;;5033690;28;20029;-44
2023/03/16 06:13:22;;;;;;;6.93;3.17;;;2.90;70.20;;;;;;5036040;28;20049;-44
2023/03/16 06:15:49;;;;;;;7.93;3.38;;;3.00;70.00;;;;;;5033275;28;20053;-44
2023/03/16 06:18:18;;;;;;;8.32;3.47;;;3.00;69.60;;;;;;5033629;28;20029;-45
2023/03/16 06:20:46;;;;;;;5.45;2.50;;;3.10;69.70;;;;;;5033777;28;20044;-44
2023/03/16 06:23:13;;;;;;;7.53;2.83;;;3.20;69.70;;;;;;5032203;28;20017;-45
2023/03/16 06:25:40;;;;;;;6.03;3.63;;;3.20;69.60;;;;;;5034135;28;20319;-44
2023/03/16 06:28:06;;;;;;;7.82;2.90;;;3.20;69.80;;;;;;5033924;28;20033;-45
2023/03/16 06:30:33;;;;;;;6.65;3.20;;;3.30;69.60;;;;;;5032772;28;20038;-44
2023/03/16 06:33:00;;;;;;;9.75;2.85;;;3.30;69.30;;;;;;5033305;28;20025;-44
2023/03/16 06:35:29;;;;;;;6.80;3.13;;;3.30;69.10;;;;;;5042365;28;20037;-45
2023/03/16 06:37:56;;;;;;;5.40;2.95;;;3.30;69.60;;;;;;5053556;28;20050;-45
2023/03/16 06:40:23;;;;;;;6.55;2.75;;;3.40;69.40;;;;;;5045278;28;20385;-46
2023/03/16 06:42:50;;;;;;;8.23;3.78;;;3.40;68.80;;;;;;5033501;28;20367;-44
2023/03/16 06:45:20;;;;;;;7.53;3.17;;;3.50;68.80;;;;;;5049163;28;20038;-45
2023/03/16 06:47:49;;;;;;;5.85;3.30;;;3.50;68.70;;;;;;5033791;28;20030;-45
2023/03/16 06:50:16;;;;;;;7.00;3.22;;;3.50;68.60;;;;;;5031956;28;20037;-44
2023/03/16 06:52:43;;;;;;;9.15;3.85;;;3.50;69.00;;;;;;5032474;28;20029;-44
2023/03/16 06:55:11;;;;;;;5.68;3.17;;;3.60;68.50;;;;;;5033259;28;20482;-46
2023/03/16 06:57:39;;;;;;;6.45;3.47;;;3.60;68.40;;;;;;5033572;28;20052;-46
2023/03/16 07:00:06;;;;;;;5.85;2.95;;;3.70;68.80;;;;;;5033159;28;20018;-43
2023/03/16 07:02:39;;;;;;;8.40;2.88;;;3.70;68.60;;;;;;5033540;28;20108;-46
2023/03/16 07:05:12;;;;;;;7.60;2.95;;;3.80;68.40;;;;;;5033468;28;20076;-45
2023/03/16 07:07:44;;;;;;;6.82;3.25;;;3.90;68.60;;;;;;5032842;28;20049;-46
2023/03/16 07:10:18;;;;;;;7.07;3.72;;;3.90;67.90;;;;;;5031884;28;20530;-45
2023/03/16 07:12:46;;;;;;;6.53;3.05;;;3.90;68.40;;;;;;5032797;28;20076;-44
2023/03/16 07:15:13;;;;;;;6.35;3.25;;;4.00;68.20;;;;;;5032498;28;20053;-45
2023/03/16 07:17:41;;;;;;;6.82;3.28;;;4.00;68.20;;;;;;5032930;28;20021;-46
2023/03/16 07:20:14;;;;;;;7.63;3.08;;;4.00;68.10;;;;;;5032125;28;20029;-45
2023/03/16 07:22:42;;;;;;;6.60;3.35;;;4.10;67.90;;;;;;5032956;28;20030;-44
2023/03/16 07:25:10;;;;;;;6.55;3.35;;;4.10;67.90;;;;;;5031909;28;20359;-47
2023/03/16 07:27:37;;;;;;;5.97;3.40;;;4.10;67.60;;;;;;5031897;28;20037;-47
2023/03/16 07:30:06;;;;;;;5.65;3.08;;;4.20;67.90;;;;;;5032724;28;20044;-45
2023/03/16 07:32:33;;;;;;;8.07;3.85;;;4.20;67.70;;;;;;5031789;28;20043;-46
2023/03/16 07:35:01;;;;;;;7.07;3.05;;;4.20;67.30;;;;;;5033970;28;20030;-45
2023/03/16 07:37:31;;;;;;;4.80;2.63;;;4.20;67.10;;;;;;5037265;28;20041;-44
2023/03/16 07:39:56;;;;;;;4.45;2.67;;;4.30;67.20;;;;;;5037729;28;20034;-44
2023/03/16 07:42:23;;;;;;;6.93;2.60;;;4.40;66.80;;;;;;5056639;28;20020;-45
2023/03/16 07:44:51;;;;;;;8.73;2.60;;;4.50;67.00;;;;;;5047776;28;20126;-45
2023/03/16 07:47:20;;;;;;;5.03;3.03;;;4.50;67.20;;;;;;5036730;28;20025;-45
2023/03/16 07:49:47;;;;;;;8.77;3.17;;;4.50;67.20;;;;;;5035744;28;20398;-45
2023/03/16 07:52:13;;;;;;;10.52;2.88;;;4.60;67.20;;;;;;5036613;28;20029;-44
2023/03/16 07:54:43;;;;;;;5.05;3.15;;;4.60;67.10;;;;;;5036656;28;20056;-44
2023/03/16 07:57:10;;;;;;;7.53;3.17;;;4.70;67.10;;;;;;5036747;28;20080;-44
2023/03/16 07:59:37;;;;;;;7.20;3.05;;;4.70;67.60;;;;;;5036780;28;20374;-45
2023/03/16 08:02:04;;;;;;;9.20;4.32;;;4.80;67.50;;;;;;5043420;28;20025;-47
2023/03/16 08:04:30;;;;;;;7.85;4.63;;;4.80;67.90;;;;;;5056752;28;20049;-43
2023/03/16 08:07:00;;;;;;;6.38;3.22;;;4.70;68.00;;;;;;5043584;28;20068;-47
2023/03/16 08:09:29;;;;;;;8.38;3.60;;;4.70;68.00;;;;;;5036521;28;20044;-44
2023/03/16 08:11:58;;;;;;;6.72;3.22;;;4.80;67.90;;;;;;5035380;28;20437;-44
2023/03/16 08:14:26;;;;;;;7.45;3.05;;;4.80;68.10;;;;;;5034822;28;20076;-46
2023/03/16 08:16:53;;;;;;;5.38;3.28;;;4.80;68.20;;;;;;5036136;28;20125;-46
2023/03/16 08:19:19;;;;;;;7.50;3.40;;;4.90;67.80;;;;;;5036305;28;20032;-45
2023/03/16 08:21:48;;;;;;;7.05;3.25;;;4.90;67.40;;;;;;5034635;28;20030;-47
2023/03/16 08:24:14;;;;;;;;;;;5.00;68.10;;;;;;5036323;28;20105;-46
2023/03/16 08:26:40;;;;;;;8.23;3.38;;;5.00;68.30;;;;;;5036197;28;19999;-45
2023/03/16 08:29:07;;;;;;;4.22;2.65;;;5.00;67.80;;;;;;5035184;28;20048;-45
2023/03/16 08:31:34;;;;;;;8.65;3.13;;;5.20;67.30;;;;;;5052128;28;20051;-45
2023/03/16 08:34:01;;;;;;;6.85;3.35;;;5.20;67.30;;;;;;5056025;28;20036;-45
2023/03/16 08:36:31;;;;;;;9.00;3.28;;;5.30;66.90;;;;;;5055068;28;20155;-49
2023/03/16 08:38:58;;;;;;;6.47;2.70;;;5.40;67.10;;;;;;5049752;28;20026;-48
2023/03/16 08:41:29;;;;;;;7.18;2.53;;;5.40;66.90;;;;;;5035845;28;20032;-45
2023/03/16 08:43:58;;;;;;;5.18;2.88;;;5.50;67.10;;;;;;5036123;28;20029;-46
2023/03/16 08:46:30;;;;;;;5.97;2.80;;;5.40;67.00;;;;;;5034437;28;20413;-45
2023/03/16 08:48:57;;;;;;;7.85;3.13;;;5.50;66.90;;;;;;5034504;28;20128;-46
2023/03/16 08:51:26;;;;;;;5.70;2.67;;;5.50;67.30;;;;;;5034042;28;20049;-46
2023/03/16 08:53:54;;;;;;;5.32;2.45;;;5.60;67.20;;;;;;5035685;28;20053;-43
2023/03/16 08:56:21;;;;;;;10.32;3.95;;;5.70;67.50;;;;;;5050664;28;20119;-45
2023/03/16 08:58:50;;;;;;;6.50;3.03;;;5.70;67.00;;;;;;5035512;28;20029;-47
2023/03/16 09:01:18;;;;;;;8.38;3.75;;;5.90;66.10;;;;;;5034395;28;20033;-46
2023/03/16 09:03:45;;;;;;;6.80;2.90;;;5.80;66.60;;;;;;5035262;28;20053;-48
2023/03/16 09:06:14;;;;;;;7.90;2.88;;;5.80;66.80;;;;;;5050880;28;20104;-44
2023/03/16 09:08:41;;;;;;;4.10;2.45;;;5.80;66.20;;;;;;5034613;28;20095;-44
2023/03/16 09:11:13;;;;;;;7.68;3.10;;;5.80;66.60;;;;;;5035310;28;20042;-45
2023/03/16 09:13:41;;;;;;;7.45;2.75;;;5.90;66.10;;;;;;5033620;28;20087;-44
2023/03/16 09:16:15;;;;;;;6.03;2.50;;;6.00;65.90;;;;;;5033432;28;20057;-49
2023/03/16 09:18:46;;;;;;;5.68;2.75;;;6.10;66.10;;;;;;5033850;28;20029;-45
2023/03/16 09:21:13;;;;;;;5.60;2.97;;;6.20;66.10;;;;;;5035275;28;20237;-45
2023/03/16 09:23:41;;;;;;;4.68;2.60;;;6.20;66.00;;;;;;5035311;28;20049;-44
2023/03/16 09:26:11;;;;;;;7.10;3.03;;;6.30;66.20;;;;;;5034960;28;20030;-48
2023/03/16 09:28:38;;;;;;;5.00;2.53;;;6.40;65.00;;;;;;5017904;28;20037;-46
2023/03/16 09:31:06;;;;;;;6.03;2.83;;;6.30;64.60;;;;;;5035194;28;20336;-46
2023/03/16 09:33:35;;;;;;;6.18;3.20;;;6.20;65.00;;;;;;5034952;28;20037;-48
2023/03/16 09:36:02;;;;;;;4.78;2.80;;;6.20;65.50;;;;;;5033810;28;20038;-45
2023/03/16 09:38:29;;;;;;;5.82;2.70;;;6.20;65.80;;;;;;5033721;28;20444;-45
2023/03/16 09:41:08;;;;;;;6.97;3.10;;;6.30;65.20;;;;;;5034785;28;20516;-44
2023/03/16 09:43:56;;;;;;;5.38;2.90;;;6.30;65.10;;;;;;5033795;28;20030;-47
2023/03/16 09:46:42;;;;;;;6.10;3.35;;;6.20;65.00;;;;;;5034875;28;20040;-45
2023/03/16 09:49:11;;;;;;;6.68;3.28;;;6.30;65.50;;;;;;5033695;28;20025;-44
2023/03/16 09:52:11;;;;;;;5.07;3.08;;;6.30;66.10;;;;;;5033495;28;20505;-45
2023/03/16 10:01:27;;;;;;;7.68;3.42;;;6.60;65.10;;;;;;5033874;28;20040;-45
2023/03/16 10:04:14;;;;;;;9.73;3.92;;;6.70;65.20;;;;;;5034253;28;20031;-45
2023/03/16 10:07:18;;;;;;;5.90;3.13;;;6.80;64.90;;;;;;5034098;28;20026;-46
2023/03/16 10:10:13;;;;;;;7.90;3.30;;;6.90;65.40;;;;;;5034575;28;20052;-45
2023/03/16 10:12:46;;;;;;;7.78;3.25;;;6.90;65.40;;;;;;5028696;28;20038;-45
2023/03/16 10:15:21;;;;;;;5.07;3.05;;;6.90;65.50;;;;;;5032317;28;20033;-44
2023/03/16 10:18:06;;;;;;;5.32;3.70;;;6.90;65.70;;;;;;5034032;28;20025;-44
2023/03/16 10:20:36;;;;;;;6.10;3.33;;;6.90;65.20;;;;;;5034060;28;20041;-44
2023/03/16 10:23:24;;;;;;;9.38;3.83;;;6.90;64.10;;;;;;5034011;28;20033;-45
2023/03/16 10:26:11;;;;;;;10.25;4.15;;;6.90;65.70;;;;;;5049390;28;20045;-44
2023/03/16 10:28:41;;;;;;;6.32;3.17;;;6.90;66.30;;;;;;5033748;28;20029;-44
2023/03/16 10:31:12;;;;;;;;;;;7.10;66.10;;;;;;5034130;28;20522;-45
2023/03/16 10:33:39;;;;;;;6.45;3.40;;;7.20;66.20;;;;;;5032428;28;19913;-44
2023/03/16 10:36:14;;;;;;;6.65;3.38;;;7.30;66.70;;;;;;5032704;28;20053;-44
2023/03/16 10:38:48;;;;;;;5.85;3.15;;;7.30;66.30;;;;;;5033310;28;20049;-45
2023/03/16 10:41:41;;;;;;;5.45;3.38;;;7.30;66.70;;;;;;5033819;28;20029;-44
2023/03/16 10:44:33;;;;;;;6.70;3.20;;;7.30;66.70;;;;;;5033666;28;20029;-44
2023/03/16 10:47:07;;;;;;;7.60;3.42;;;7.30;65.00;;;;;;5033405;28;20030;-43
2023/03/16 10:49:52;;;;;;;11.75;5.63;;;7.40;66.20;;;;;;5032241;28;20402;-45
2023/03/16 10:52:43;;;;;;;6.95;3.10;;;7.40;66.30;;;;;;5033508;28;20338;-45
2023/03/16 10:55:23;;;;;;;7.25;3.70;;;7.30;66.00;;;;;;5033733;28;20037;-45
2023/03/16 10:57:54;;;;;;;5.43;3.30;;;7.40;67.10;;;;;;5033184;28;20037;-44
2023/03/16 11:00:42;;;;;;;5.88;3.58;;;7.40;66.40;;;;;;5048517;28;20370;-44
2023/03/16 11:03:46;;;;;;;10.60;3.58;;;7.50;66.30;;;;;;5032503;28;20037;-45
2023/03/16 11:06:35;;;;;;;7.38;3.65;;;7.40;66.70;;;;;;5041074;28;20037;-44
2023/03/16 11:09:12;;;;;;;4.82;3.00;;;7.50;67.10;;;;;;5053745;28;20064;-44
2023/03/16 11:11:50;;;;;;;6.45;4.05;;;7.50;67.80;;;;;;5046346;28;20037;-45
2023/03/16 11:14:36;;;;;;;9.98;3.78;;;7.50;67.90;;;;;;5016098;28;20033;-44
2023/03/16 11:17:33;;;;;;;6.75;3.28;;;7.50;67.30;;;;;;5013518;28;20037;-44
2023/03/16 11:20:11;;;;;;;6.82;3.78;;;7.50;67.10;;;;;;5014055;28;20037;-48
2023/03/16 11:22:40;;;;;;;6.28;3.60;;;7.50;67.00;;;;;;5043046;28;20044;-44
2023/03/16 11:25:32;;;;;;;7.95;3.60;;;7.50;67.40;;;;;;5032254;28;20030;-48
2023/03/16 11:28:26;;;;;;;8.05;3.60;;;7.60;67.20;;;;;;5031774;28;20029;-45
2023/03/16 11:31:15;;;;;;;4.68;3.38;;;7.70;67.50;;;;;;5015790;28;20064;-45
2023/03/16 11:33:43;;;;;;;5.35;3.60;;;7.90;66.70;;;;;;5013384;28;20355;-45
2023/03/16 11:36:32;;;;;;;10.95;4.18;;;8.10;66.40;;;;;;5031519;28;20596;-47
2023/03/16 11:39:30;;;;;;;12.90;3.78;;;8.30;66.90;;;;;;5032996;28;20056;-47
2023/03/16 11:42:29;;;;;;;8.60;3.85;;;8.40;65.60;;;;;;5020078;28;20038;-45
2023/03/16 11:45:16;;;;;;;7.43;3.90;;;8.50;66.10;;;;;;5014220;28;20042;-45
2023/03/16 11:48:11;;;;;;;7.30;3.60;;;8.60;66.90;;;;;;5013059;28;20029;-45
2023/03/16 11:51:12;;;;;;;9.38;3.35;;;8.90;65.50;;;;;;5015391;28;20041;-47
2023/03/16 11:54:14;;;;;;;6.90;3.35;;;9.00;65.70;;;;;;5031700;28;20029;-47
2023/03/16 11:57:10;;;;;;;6.00;3.83;;;9.20;65.00;;;;;;5031438;28;20026;-45
2023/03/16 12:00:04;;;;;;;7.72;3.83;;;9.40;64.10;;;;;;5026284;28;20046;-46
2023/03/16 12:03:02;;;;;;;7.43;4.82;;;9.40;64.30;;;;;;5012869;28;20026;-45
2023/03/16 12:05:46;;;;;;;4.72;3.60;;;9.30;63.90;;;;;;5013251;28;20037;-45
2023/03/16 12:08:31;;;;;;;7.82;3.60;;;9.40;64.90;;;;;;5012963;28;20026;-45
2023/03/16 12:11:24;;;;;;;7.03;3.30;;;9.20;64.30;;;;;;5012955;28;20041;-46
2023/03/16 12:14:22;;;;;;;5.95;2.92;;;9.00;65.10;;;;;;5027673;28;20038;-50
2023/03/16 12:17:16;;;;;;;5.97;4.05;;;8.90;66.60;;;;;;5012804;28;20448;-48
2023/03/16 12:20:12;;;;;;;7.32;3.30;;;8.90;68.40;;;;;;5012770;28;20026;-46
2023/03/16 12:22:52;;;;;;;13.02;3.63;;;8.90;66.70;;;;;;5015381;28;20038;-43
2023/03/16 12:25:21;;;;;;;;;;;8.90;66.60;;;;;;5017060;28;20103;-45
2023/03/16 12:27:52;;;;;;;9.02;3.13;;;8.90;68.10;;;;;;5015555;28;19960;-45
2023/03/16 12:30:57;;;;;;;6.90;4.68;;;8.90;68.00;;;;;;5015635;28;20038;-48
2023/03/16 12:33:44;;;;;;;7.28;4.15;;;9.20;68.20;;;;;;5016736;28;20169;-51
2023/03/16 12:36:20;;;;;;;6.38;3.80;;;9.30;69.20;;;;;;5035958;28;20034;-45
2023/03/16 12:38:59;;;;;;;10.68;4.57;;;9.40;69.40;;;;;;5035992;28;20086;-44
2023/03/16 12:42:02;;;;;;;6.28;3.35;;;9.40;68.10;;;;;;5032877;28;20041;-45
2023/03/16 12:44:57;;;;;;;7.13;3.40;;;9.20;69.80;;;;;;5015303;28;20034;-43
2023/03/16 12:48:00;;;;;;;6.93;4.20;;;8.90;69.50;;;;;;5015577;28;20044;-46
2023/03/16 12:50:28;;;;;;;7.25;3.55;;;8.70;70.00;;;;;;5015999;28;20062;-45
2023/03/16 12:52:55;;;;;;;7.30;3.70;;;8.60;69.70;;;;;;5015002;28;20340;-45
2023/03/16 12:55:38;;;;;;;7.97;4.22;;;8.50;70.00;;;;;;5015679;28;20030;-45
2023/03/16 12:58:13;;;;;;;7.53;3.40;;;8.50;71.00;;;;;;5015844;28;20124;-48
2023/03/16 13:00:43;;;;;;;7.03;3.72;;;8.40;71.50;;;;;;5015787;28;20116;-44
2023/03/16 13:03:19;;;;;;;;;;;8.20;73.00;;;;;;5016170;28;20431;-47
2023/03/16 13:05:55;;;;;;;8.10;3.70;;;7.90;74.00;;;;;;5015558;28;19914;-44
2023/03/16 13:08:22;;;;;;;7.40;3.92;;;7.70;75.00;;;;;;5014717;28;20567;-43
2023/03/16 13:11:13;;;;;;;7.80;3.35;;;7.60;75.50;;;;;;5015433;28;20057;-42
2023/03/16 13:13:54;;;;;;;10.50;3.92;;;7.40;76.50;;;;;;5014520;28;20037;-42
2023/03/16 13:16:40;;;;;;;9.38;4.65;;;7.40;77.10;;;;;;5030848;28;20057;-42
2023/03/16 13:19:27;;;;;;;7.35;3.78;;;7.30;78.00;;;;;;5034065;28;20022;-47
2023/03/16 13:22:41;;;;;;;6.05;4.25;;;7.30;77.90;;;;;;5034166;28;20076;-47
2023/03/16 13:25:33;;;;;;;8.88;3.92;;;7.20;78.40;;;;;;4993742;28;20054;-52
2023/03/16 13:28:04;;;;;;;6.35;4.15;;;7.20;79.00;;;;;;5008051;28;20095;-52
2023/03/16 13:30:33;;;;;;;6.15;4.55;;;7.10;78.70;;;;;;5013466;28;20482;-53
2023/03/16 13:33:24;;;;;;;9.27;4.35;;;7.00;79.90;;;;;;4996326;28;20049;-55
2023/03/16 13:35:57;;;;;;;7.53;4.40;;;7.00;80.20;;;;;;4978686;28;20119;-56
2023/03/16 13:38:35;;;;;;;10.45;4.43;;;6.90;81.30;;;;;;4976550;28;20034;-58